Time;durP1;ratioP1;P1;durP2;ratioP2;P2;SDS_P1;SDS_P2;PMS_P1;PMS_P2;Temp;Humidity;BMP_temperature;BMP_pressure;BME280_temperature;BME280_humidity;BME280_pressure;Samples;Min_cycle;Max_cycle;Signal;HPM_P1;HPM_P2
2023/05/21 00:02:18;;;;;;;2.88;1.50;;;15.90;99.90;;;;;;5013216;28;20512;-67
2023/05/21 00:04:44;;;;;;;3.13;1.70;;;15.80;99.90;;;;;;5013253;28;20018;-68
2023/05/21 00:07:11;;;;;;;5.30;1.50;;;15.80;99.90;;;;;;5013179;28;20037;-66
2023/05/21 00:09:44;;;;;;;3.33;1.40;;;15.80;99.90;;;;;;5013407;28;20517;-66
2023/05/21 00:12:10;;;;;;;1.67;1.58;;;15.70;99.90;;;;;;5012778;28;20022;-67
2023/05/21 00:14:36;;;;;;;2.42;1.70;;;15.80;99.90;;;;;;5012694;28;20032;-68
2023/05/21 00:17:01;;;;;;;1.88;1.60;;;15.80;99.90;;;;;;5011638;28;20041;-67
2023/05/21 00:19:27;;;;;;;2.03;1.88;;;15.80;99.90;;;;;;5013057;28;20487;-66
2023/05/21 00:21:53;;;;;;;2.28;1.70;;;15.80;99.90;;;;;;5028085;28;20042;-67
2023/05/21 00:24:19;;;;;;;2.92;1.70;;;15.80;99.90;;;;;;5013038;28;20025;-68
2023/05/21 00:26:44;;;;;;;2.80;1.95;;;15.70;99.90;;;;;;5012656;28;20084;-69
2023/05/21 00:29:10;;;;;;;3.17;1.80;;;15.70;99.90;;;;;;5012606;28;20026;-67
2023/05/21 00:31:36;;;;;;;1.95;1.73;;;15.70;99.90;;;;;;5013041;28;20026;-67
2023/05/21 00:34:01;;;;;;;2.03;1.90;;;15.80;99.90;;;;;;5012915;28;20033;-67
2023/05/21 00:36:29;;;;;;;4.03;1.92;;;15.80;99.90;;;;;;5012820;28;20045;-67
2023/05/21 00:38:55;;;;;;;3.63;1.95;;;15.70;99.90;;;;;;5012464;28;20022;-67
2023/05/21 00:41:24;;;;;;;6.10;1.63;;;15.70;99.90;;;;;;5012788;28;20056;-67
2023/05/21 00:43:51;;;;;;;2.38;1.77;;;15.80;99.90;;;;;;5027382;28;20041;-67
2023/05/21 00:46:19;;;;;;;4.43;1.88;;;15.70;99.90;;;;;;5013039;28;20525;-68
2023/05/21 00:48:46;;;;;;;2.85;2.33;;;15.70;99.90;;;;;;5013039;28;20026;-68
2023/05/21 00:51:17;;;;;;;3.38;1.98;;;15.70;99.90;;;;;;5012604;28;20434;-67
2023/05/21 00:53:43;;;;;;;1.80;1.70;;;15.60;99.90;;;;;;5012810;28;20049;-69
2023/05/21 00:56:09;;;;;;;1.65;1.55;;;15.60;99.90;;;;;;5012696;28;20033;-67
2023/05/21 00:58:38;;;;;;;3.42;1.90;;;15.60;99.90;;;;;;5012680;28;20383;-67
2023/05/21 01:01:05;;;;;;;4.97;2.05;;;15.60;99.90;;;;;;5012929;28;20497;-67
2023/05/21 01:03:37;;;;;;;2.17;1.80;;;15.70;99.90;;;;;;5024798;28;20053;-66
2023/05/21 01:06:08;;;;;;;3.72;2.70;;;15.70;99.90;;;;;;5012317;28;20033;-66
2023/05/21 01:08:36;;;;;;;2.15;1.92;;;15.70;99.90;;;;;;5012506;28;20121;-66
2023/05/21 01:11:03;;;;;;;3.92;2.05;;;15.70;99.90;;;;;;5012415;28;20030;-67
2023/05/21 01:13:30;;;;;;;12.80;2.33;;;15.60;99.90;;;;;;5012621;28;20356;-66
2023/05/21 01:15:57;;;;;;;2.22;2.03;;;15.70;99.90;;;;;;5012522;28;20032;-67
2023/05/21 01:18:25;;;;;;;2.72;1.80;;;15.70;99.90;;;;;;5012519;28;20026;-67
2023/05/21 01:20:54;;;;;;;6.03;2.50;;;15.70;99.90;;;;;;5012287;28;20496;-66
2023/05/21 01:23:20;;;;;;;2.08;1.90;;;15.70;99.90;;;;;;5012531;28;20481;-65
2023/05/21 01:25:46;;;;;;;1.85;1.63;;;15.70;99.90;;;;;;5013301;28;20120;-66
2023/05/21 01:28:13;;;;;;;12.27;6.15;;;15.60;99.90;;;;;;5015753;28;20034;-66
2023/05/21 01:30:40;;;;;;;5.80;3.20;;;15.60;99.90;;;;;;5015806;28;20441;-67
2023/05/21 01:33:14;;;;;;;3.60;1.98;;;15.60;99.90;;;;;;5015852;28;20072;-67
2023/05/21 01:35:45;;;;;;;2.65;1.70;;;15.70;99.90;;;;;;5015870;28;20021;-67
2023/05/21 01:38:19;;;;;;;3.92;2.45;;;15.70;99.90;;;;;;5015671;28;20391;-67
2023/05/21 01:41:02;;;;;;;2.42;1.90;;;15.70;99.90;;;;;;5015730;28;20393;-68
2023/05/21 01:43:31;;;;;;;4.30;2.42;;;15.70;99.90;;;;;;5018093;28;20030;-68
2023/05/21 01:45:59;;;;;;;2.25;1.83;;;15.80;99.90;;;;;;5015607;28;20030;-67
2023/05/21 01:48:27;;;;;;;2.63;2.28;;;15.70;99.90;;;;;;5015581;28;20405;-67
2023/05/21 01:50:58;;;;;;;4.78;2.58;;;15.70;99.90;;;;;;5015673;28;20026;-67
2023/05/21 01:53:24;;;;;;;4.40;2.38;;;15.60;99.90;;;;;;5015505;28;20490;-68
2023/05/21 01:55:53;;;;;;;7.50;2.20;;;15.60;99.90;;;;;;5030386;28;20093;-66
2023/05/21 01:58:21;;;;;;;3.05;2.10;;;15.50;99.90;;;;;;5030005;28;20583;-69
2023/05/21 02:00:49;;;;;;;;;;;15.60;99.90;;;;;;5015436;28;20116;-67
2023/05/21 02:03:16;;;;;;;1.73;1.60;;;15.50;99.90;;;;;;5015259;28;20365;-67
2023/05/21 02:05:42;;;;;;;4.60;2.22;;;15.50;99.90;;;;;;5030411;28;20033;-66
2023/05/21 02:08:08;;;;;;;3.03;2.03;;;15.50;99.90;;;;;;5014883;28;20169;-67
2023/05/21 02:10:34;;;;;;;3.60;2.22;;;15.50;99.90;;;;;;5015012;28;20112;-67
2023/05/21 02:13:00;;;;;;;2.72;2.10;;;15.50;99.90;;;;;;5011506;28;20125;-68
2023/05/21 02:15:26;;;;;;;3.97;2.17;;;15.50;99.90;;;;;;5015080;28;20034;-67
2023/05/21 02:17:51;;;;;;;10.13;6.30;;;15.50;99.90;;;;;;5015003;28;20025;-67
2023/05/21 02:20:21;;;;;;;4.43;3.30;;;15.50;99.90;;;;;;5010903;28;20367;-66
2023/05/21 02:22:47;;;;;;;3.28;2.70;;;15.50;99.90;;;;;;5029937;28;20053;-67
2023/05/21 02:25:17;;;;;;;2.97;2.40;;;15.50;99.90;;;;;;5014878;28;20021;-68
2023/05/21 02:27:45;;;;;;;5.20;2.28;;;15.50;99.90;;;;;;5014798;28;20552;-67
2023/05/21 02:30:12;;;;;;;2.47;2.28;;;15.50;99.90;;;;;;5030151;28;20076;-66
2023/05/21 02:32:41;;;;;;;3.53;2.58;;;15.50;99.90;;;;;;5014782;28;20025;-67
2023/05/21 02:35:08;;;;;;;3.50;2.50;;;15.50;99.90;;;;;;5030170;28;20048;-67
2023/05/21 02:37:34;;;;;;;3.95;2.50;;;15.50;99.90;;;;;;5014211;28;20487;-67
2023/05/21 02:40:03;;;;;;;3.22;2.53;;;15.50;99.90;;;;;;5014515;28;20028;-67
2023/05/21 02:42:29;;;;;;;6.82;2.85;;;15.50;99.90;;;;;;5014481;28;20037;-67
2023/05/21 02:44:55;;;;;;;5.57;2.65;;;15.50;99.90;;;;;;5014454;28;20021;-66
2023/05/21 02:47:22;;;;;;;5.95;2.58;;;15.40;99.90;;;;;;5014417;28;20116;-68
2023/05/21 02:49:49;;;;;;;3.83;2.45;;;15.40;99.90;;;;;;5029533;28;20057;-67
2023/05/21 02:52:17;;;;;;;2.85;2.47;;;15.40;99.90;;;;;;5029550;28;20489;-67
2023/05/21 02:54:43;;;;;;;;;;;15.40;99.90;;;;;;5014687;28;20475;-67
2023/05/21 02:57:08;;;;;;;6.28;2.85;;;15.40;99.90;;;;;;5014214;28;19912;-68
2023/05/21 02:59:34;;;;;;;2.78;2.58;;;15.30;99.90;;;;;;5014196;28;20026;-67
2023/05/21 03:02:00;;;;;;;3.38;2.70;;;15.40;99.90;;;;;;5014181;28;20505;-68
2023/05/21 03:04:27;;;;;;;4.07;2.97;;;15.40;99.90;;;;;;5014089;28;20386;-67
2023/05/21 03:06:53;;;;;;;4.78;3.08;;;15.40;99.90;;;;;;5014095;28;20025;-66
2023/05/21 03:09:22;;;;;;;3.85;2.20;;;15.40;99.90;;;;;;5014035;28;20022;-66
2023/05/21 03:11:51;;;;;;;7.18;2.97;;;15.40;99.90;;;;;;5013944;28;20033;-66
2023/05/21 03:14:16;;;;;;;7.95;2.80;;;15.40;99.90;;;;;;5014074;28;20368;-67
2023/05/21 03:16:42;;;;;;;5.15;3.03;;;15.40;99.90;;;;;;5013985;28;20111;-67
2023/05/21 03:19:11;;;;;;;7.20;2.40;;;15.40;99.90;;;;;;5013914;28;20057;-67
2023/05/21 03:21:37;;;;;;;3.28;2.67;;;15.40;99.90;;;;;;5013681;28;20041;-68
2023/05/21 03:24:04;;;;;;;6.10;2.90;;;15.40;99.90;;;;;;5013891;28;20093;-67
2023/05/21 03:26:30;;;;;;;2.85;2.65;;;15.40;99.90;;;;;;5013763;28;20045;-67
2023/05/21 03:28:56;;;;;;;5.28;2.25;;;15.40;99.90;;;;;;5013724;28;20060;-67
2023/05/21 03:31:22;;;;;;;4.75;3.30;;;15.40;99.90;;;;;;5013582;28;20033;-67
2023/05/21 03:33:48;;;;;;;4.50;2.92;;;15.30;99.90;;;;;;5013662;28;20029;-67
2023/05/21 03:36:13;;;;;;;3.28;2.63;;;15.30;99.90;;;;;;5013502;28;20026;-68
2023/05/21 03:38:39;;;;;;;3.30;2.70;;;15.40;99.90;;;;;;5013551;28;20021;-68
2023/05/21 03:41:07;;;;;;;3.85;2.83;;;15.40;99.90;;;;;;5013531;28;20449;-67
2023/05/21 03:43:32;;;;;;;;;;;15.30;99.90;;;;;;5013916;28;20030;-68
2023/05/21 03:45:58;;;;;;;3.00;2.58;;;15.20;99.90;;;;;;5013526;28;19912;-67
2023/05/21 03:48:24;;;;;;;5.43;3.05;;;15.20;99.90;;;;;;5012547;28;20498;-67
2023/05/21 03:50:50;;;;;;;4.03;3.05;;;15.20;99.90;;;;;;5013934;28;20025;-67
2023/05/21 03:53:16;;;;;;;2.83;2.55;;;15.20;99.90;;;;;;5028539;28;20018;-67
2023/05/21 03:55:41;;;;;;;3.97;2.83;;;15.20;99.90;;;;;;5013294;28;20053;-67
2023/05/21 03:58:08;;;;;;;4.13;3.40;;;15.20;99.90;;;;;;5013243;28;20053;-66
2023/05/21 04:00:36;;;;;;;2.72;2.45;;;15.20;99.90;;;;;;5013325;28;20026;-67
2023/05/21 04:03:02;;;;;;;;;;;15.10;99.90;;;;;;5013589;28;20064;-68
2023/05/21 04:05:27;;;;;;;5.40;3.08;;;15.10;99.90;;;;;;5013207;28;20278;-66
2023/05/21 04:07:55;;;;;;;7.78;2.35;;;15.10;99.90;;;;;;5025582;28;20044;-68
2023/05/21 04:10:21;;;;;;;5.03;2.80;;;15.20;99.90;;;;;;5013010;28;20029;-68
2023/05/21 04:12:51;;;;;;;2.92;2.53;;;15.20;99.90;;;;;;5012883;28;20434;-67
2023/05/21 04:15:21;;;;;;;3.55;2.65;;;15.20;99.90;;;;;;5013196;28;20483;-67
2023/05/21 04:17:47;;;;;;;4.72;2.50;;;15.20;99.90;;;;;;5013136;28;20053;-68
2023/05/21 04:20:15;;;;;;;4.75;2.50;;;15.20;99.90;;;;;;5013014;28;20054;-68
2023/05/21 04:22:44;;;;;;;6.05;2.90;;;15.20;99.90;;;;;;5012922;28;20550;-69
2023/05/21 04:25:10;;;;;;;3.13;2.50;;;15.20;99.90;;;;;;5013281;28;20463;-68
2023/05/21 04:27:36;;;;;;;4.65;2.70;;;15.10;99.90;;;;;;5012994;28;20050;-68
2023/05/21 04:30:03;;;;;;;4.03;2.33;;;15.10;99.90;;;;;;5012900;28;20474;-67
2023/05/21 04:32:30;;;;;;;5.85;2.92;;;15.10;99.90;;;;;;5028093;28;20057;-67
2023/05/21 04:34:59;;;;;;;4.15;3.08;;;15.10;99.90;;;;;;5012937;28;20018;-67
2023/05/21 04:37:26;;;;;;;3.25;2.72;;;15.10;99.90;;;;;;5027971;28;20386;-68
2023/05/21 04:39:56;;;;;;;3.33;2.63;;;15.00;99.90;;;;;;5028161;28;20026;-67
2023/05/21 04:42:24;;;;;;;6.78;2.60;;;15.10;99.90;;;;;;5012873;28;20026;-67
2023/05/21 04:44:50;;;;;;;3.55;2.13;;;15.00;99.90;;;;;;5012551;28;20034;-70
2023/05/21 04:47:18;;;;;;;4.05;2.58;;;15.00;99.90;;;;;;5013027;28;20463;-67
2023/05/21 04:49:45;;;;;;;3.15;2.70;;;15.10;99.90;;;;;;5012718;28;20033;-67
2023/05/21 04:52:11;;;;;;;3.47;2.65;;;15.10;99.90;;;;;;5027967;28;20037;-67
2023/05/21 04:54:40;;;;;;;5.97;2.70;;;15.00;99.90;;;;;;5012723;28;20035;-67
2023/05/21 04:57:07;;;;;;;3.90;2.75;;;15.00;99.90;;;;;;5012727;28;20107;-66
2023/05/21 04:59:33;;;;;;;4.57;2.75;;;15.00;99.90;;;;;;5013580;28;20492;-68
2023/05/21 05:01:58;;;;;;;4.15;2.67;;;15.00;99.90;;;;;;5016451;28;20457;-67
2023/05/21 05:04:24;;;;;;;5.30;2.90;;;15.00;99.90;;;;;;5016100;28;20030;-66
2023/05/21 05:06:51;;;;;;;5.93;3.30;;;15.00;99.90;;;;;;5016091;28;20040;-67
2023/05/21 05:09:17;;;;;;;6.95;2.67;;;15.10;99.90;;;;;;5016326;28;20028;-67
2023/05/21 05:11:43;;;;;;;4.78;2.80;;;15.10;99.90;;;;;;5016235;28;20500;-67
2023/05/21 05:14:09;;;;;;;4.80;3.20;;;15.10;99.90;;;;;;5015886;28;20037;-67
2023/05/21 05:16:35;;;;;;;5.30;3.22;;;15.20;99.90;;;;;;5016201;28;20093;-67
2023/05/21 05:19:01;;;;;;;3.90;2.88;;;15.10;99.90;;;;;;5015847;28;20113;-67
2023/05/21 05:21:26;;;;;;;6.20;3.08;;;15.20;99.90;;;;;;5015614;28;20054;-67
2023/05/21 05:23:52;;;;;;;4.85;3.25;;;15.20;99.90;;;;;;5016098;28;20029;-67
2023/05/21 05:26:18;;;;;;;4.47;3.00;;;15.20;99.90;;;;;;5015670;28;20108;-67
2023/05/21 05:28:44;;;;;;;7.95;2.65;;;15.20;99.90;;;;;;5015930;28;20097;-68
2023/05/21 05:31:10;;;;;;;4.80;2.67;;;15.20;99.90;;;;;;5015856;28;20026;-68
2023/05/21 05:33:37;;;;;;;3.90;2.95;;;15.20;99.90;;;;;;5015866;28;20036;-67
2023/05/21 05:36:03;;;;;;;3.43;2.37;;;15.20;99.90;;;;;;5015811;28;20018;-68
2023/05/21 05:38:28;;;;;;;6.13;2.55;;;15.20;99.90;;;;;;5015630;28;20025;-68
2023/05/21 05:40:54;;;;;;;3.47;2.65;;;15.20;99.90;;;;;;5015708;28;20492;-67
2023/05/21 05:43:21;;;;;;;4.25;2.90;;;15.20;99.90;;;;;;5015615;28;20034;-68
2023/05/21 05:45:46;;;;;;;5.57;2.85;;;15.20;99.90;;;;;;5015649;28;20026;-67
2023/05/21 05:48:12;;;;;;;5.20;2.72;;;15.20;99.90;;;;;;5015551;28;20029;-68
2023/05/21 05:50:38;;;;;;;3.40;2.63;;;15.20;99.90;;;;;;5015463;28;20068;-67
2023/05/21 05:53:03;;;;;;;3.97;3.15;;;15.20;99.90;;;;;;5015504;28;20026;-68
2023/05/21 05:55:30;;;;;;;5.35;3.22;;;15.30;99.90;;;;;;5015423;28;20032;-66
2023/05/21 05:57:56;;;;;;;6.00;2.67;;;15.30;99.90;;;;;;5015176;28;20080;-68
2023/05/21 06:00:21;;;;;;;15.73;3.25;;;15.30;99.90;;;;;;5015054;28;20487;-67
2023/05/21 06:02:47;;;;;;;6.03;3.28;;;15.30;99.90;;;;;;5015368;28;20478;-68
2023/05/21 06:05:13;;;;;;;4.68;3.35;;;15.40;99.90;;;;;;5015253;28;20034;-68
2023/05/21 06:07:39;;;;;;;9.05;3.15;;;15.50;99.90;;;;;;5014873;28;20054;-68
2023/05/21 06:10:10;;;;;;;5.30;3.08;;;15.40;99.90;;;;;;5013894;28;20109;-68
2023/05/21 06:12:36;;;;;;;4.75;3.33;;;15.40;99.90;;;;;;5013707;28;20509;-68
2023/05/21 06:15:03;;;;;;;7.35;3.20;;;15.40;99.90;;;;;;5015164;28;20026;-67
2023/05/21 06:17:30;;;;;;;5.43;3.35;;;15.50;99.90;;;;;;5015044;28;20026;-68
2023/05/21 06:19:56;;;;;;;6.43;3.40;;;15.40;99.90;;;;;;5014695;28;20033;-66
2023/05/21 06:22:23;;;;;;;7.72;3.40;;;15.50;99.90;;;;;;5030030;28;20054;-67
2023/05/21 06:24:49;;;;;;;4.95;3.17;;;15.50;99.90;;;;;;5015161;28;20025;-67
2023/05/21 06:27:15;;;;;;;6.13;3.22;;;15.60;99.90;;;;;;5030071;28;20478;-68
2023/05/21 06:29:41;;;;;;;6.32;3.47;;;15.60;99.90;;;;;;5014675;28;20033;-69
2023/05/21 06:32:07;;;;;;;7.72;3.60;;;15.70;99.90;;;;;;5014727;28;20025;-68
2023/05/21 06:34:33;;;;;;;5.78;3.75;;;15.70;99.90;;;;;;5014752;28;20010;-68
2023/05/21 06:36:59;;;;;;;5.25;3.50;;;15.80;99.90;;;;;;5016980;28;20550;-67
2023/05/21 06:39:26;;;;;;;4.38;3.47;;;15.90;99.90;;;;;;5014277;28;20476;-67
2023/05/21 06:41:51;;;;;;;8.18;3.53;;;16.00;99.90;;;;;;5014461;28;20076;-67
2023/05/21 06:44:17;;;;;;;5.05;3.90;;;16.20;99.90;;;;;;5014251;28;20034;-68
2023/05/21 06:46:43;;;;;;;10.88;3.88;;;16.30;99.90;;;;;;5014204;28;20048;-67
2023/05/21 06:49:10;;;;;;;5.88;3.63;;;16.40;99.90;;;;;;5014069;28;20489;-66
2023/05/21 06:51:36;;;;;;;4.93;3.55;;;16.50;99.90;;;;;;5029510;28;20022;-68
2023/05/21 06:54:03;;;;;;;9.82;3.65;;;16.60;99.90;;;;;;5014632;28;20033;-67
2023/05/21 06:56:29;;;;;;;5.22;3.63;;;16.60;99.90;;;;;;5014251;28;20049;-68
2023/05/21 06:58:54;;;;;;;9.93;3.90;;;16.60;99.90;;;;;;5014279;28;20026;-68
2023/05/21 07:01:21;;;;;;;5.68;3.85;;;16.60;99.90;;;;;;5014189;28;20083;-67
2023/05/21 07:03:48;;;;;;;6.10;3.38;;;16.70;99.90;;;;;;5014201;28;20037;-67
2023/05/21 07:06:14;;;;;;;4.82;3.45;;;16.80;99.90;;;;;;5014232;28;20026;-67
2023/05/21 07:08:39;;;;;;;7.00;3.78;;;16.90;99.90;;;;;;5014108;28;20479;-67
2023/05/21 07:11:05;;;;;;;7.47;3.42;;;16.90;99.90;;;;;;5013934;28;20434;-67
2023/05/21 07:13:31;;;;;;;9.00;3.40;;;16.90;99.90;;;;;;5014007;28;20494;-67
2023/05/21 07:15:56;;;;;;;8.63;3.95;;;16.90;99.90;;;;;;5013993;28;20093;-66
2023/05/21 07:18:22;;;;;;;5.00;3.85;;;16.90;99.90;;;;;;5013638;28;20045;-67
2023/05/21 07:20:49;;;;;;;5.45;3.63;;;17.00;99.90;;;;;;5028939;28;20022;-67
2023/05/21 07:23:15;;;;;;;7.93;4.03;;;17.10;99.90;;;;;;5012880;28;20117;-68
2023/05/21 07:25:42;;;;;;;8.13;4.57;;;17.10;99.90;;;;;;5014184;28;20061;-68
2023/05/21 07:28:07;;;;;;;11.40;3.73;;;17.10;99.90;;;;;;5013783;28;20533;-67
2023/05/21 07:30:33;;;;;;;5.85;3.97;;;17.10;99.90;;;;;;5028881;28;20030;-67
2023/05/21 07:33:01;;;;;;;3.63;3.33;;;17.20;99.90;;;;;;5013903;28;20029;-67
2023/05/21 07:35:26;;;;;;;7.90;3.95;;;17.30;99.90;;;;;;5013670;28;20038;-67
2023/05/21 07:37:52;;;;;;;5.53;4.35;;;17.30;99.90;;;;;;5013491;28;20033;-67
2023/05/21 07:40:17;;;;;;;7.57;3.92;;;17.30;99.90;;;;;;5013585;28;20442;-68
2023/05/21 07:42:43;;;;;;;6.13;3.63;;;17.60;99.90;;;;;;5013533;28;20105;-67
2023/05/21 07:45:09;;;;;;;5.03;3.72;;;17.70;99.90;;;;;;5013580;28;20092;-66
2023/05/21 07:47:36;;;;;;;6.63;3.97;;;17.90;99.90;;;;;;5013271;28;20057;-67
2023/05/21 07:50:01;;;;;;;4.90;3.23;;;18.00;99.90;;;;;;5013350;28;20033;-67
2023/05/21 07:52:28;;;;;;;11.32;3.92;;;18.00;99.90;;;;;;5013082;28;20295;-67
2023/05/21 07:54:54;;;;;;;6.22;4.07;;;18.00;99.90;;;;;;5028728;28;20041;-67
2023/05/21 07:57:20;;;;;;;5.10;3.67;;;18.00;99.90;;;;;;5028468;28;20022;-67
2023/05/21 07:59:46;;;;;;;7.85;3.83;;;17.90;99.90;;;;;;5015675;28;20033;-67
2023/05/21 08:02:12;;;;;;;6.15;3.95;;;17.90;99.90;;;;;;5013227;28;20028;-67
2023/05/21 08:04:38;;;;;;;5.60;3.63;;;17.80;99.90;;;;;;5013335;28;20041;-67
2023/05/21 08:07:04;;;;;;;5.60;3.55;;;17.60;99.90;;;;;;5013235;28;20026;-68
2023/05/21 08:09:31;;;;;;;6.25;3.90;;;17.70;99.90;;;;;;5013165;28;20049;-66
2023/05/21 08:11:57;;;;;;;6.88;3.70;;;17.70;99.90;;;;;;5013041;28;20022;-68
2023/05/21 08:14:22;;;;;;;4.07;3.60;;;17.60;99.90;;;;;;5012950;28;20018;-67
2023/05/21 08:16:48;;;;;;;7.40;4.00;;;17.60;99.90;;;;;;5013054;28;20080;-67
2023/05/21 08:19:13;;;;;;;6.65;4.05;;;17.70;99.90;;;;;;5013079;28;20110;-67
2023/05/21 08:21:40;;;;;;;8.63;4.13;;;17.70;99.90;;;;;;5012797;28;20046;-67
2023/05/21 08:24:06;;;;;;;5.57;3.87;;;17.80;99.90;;;;;;5028272;28;20026;-67
2023/05/21 08:26:32;;;;;;;5.75;4.35;;;17.90;99.90;;;;;;5013400;28;20319;-67
2023/05/21 08:28:58;;;;;;;6.05;3.83;;;18.00;99.90;;;;;;5013019;28;20486;-68
2023/05/21 08:31:23;;;;;;;5.43;3.58;;;18.10;99.90;;;;;;5013157;28;20036;-67
2023/05/21 08:33:51;;;;;;;9.00;4.13;;;18.10;99.90;;;;;;5013006;28;20080;-68
2023/05/21 08:36:16;;;;;;;5.68;3.65;;;18.20;99.90;;;;;;5016767;28;20034;-67
2023/05/21 08:38:42;;;;;;;7.18;3.55;;;18.20;99.90;;;;;;5016877;28;20076;-69
2023/05/21 08:41:10;;;;;;;8.20;4.32;;;18.10;99.90;;;;;;5016563;28;20050;-67
2023/05/21 08:43:37;;;;;;;8.27;3.95;;;18.10;99.90;;;;;;5016792;28;20042;-67
2023/05/21 08:46:05;;;;;;;5.97;3.77;;;18.10;99.90;;;;;;5016509;28;20053;-67
2023/05/21 08:48:33;;;;;;;6.88;3.70;;;18.10;99.90;;;;;;5016643;28;20276;-66
2023/05/21 08:51:02;;;;;;;5.30;4.03;;;18.10;99.90;;;;;;5016665;28;20390;-66
2023/05/21 08:53:29;;;;;;;4.55;3.75;;;18.10;99.90;;;;;;5016727;28;20022;-67
2023/05/21 08:55:55;;;;;;;;;;;18.20;99.90;;;;;;5017053;28;20432;-66
2023/05/21 08:58:21;;;;;;;5.43;3.78;;;18.20;99.90;;;;;;5015125;28;19916;-67
2023/05/21 09:00:47;;;;;;;8.98;4.30;;;18.20;99.90;;;;;;5031652;28;20405;-66
2023/05/21 09:03:14;;;;;;;5.40;3.70;;;18.30;99.90;;;;;;5016454;28;20028;-67
2023/05/21 09:05:41;;;;;;;4.17;3.43;;;18.30;99.90;;;;;;5016456;28;20026;-65
2023/05/21 09:08:29;;;;;;;15.98;4.35;;;18.50;99.90;;;;;;5012841;28;20040;-68
2023/05/21 09:10:55;;;;;;;7.63;4.38;;;18.70;99.90;;;;;;5016072;28;20109;-67
2023/05/21 09:13:20;;;;;;;6.60;4.07;;;18.80;99.90;;;;;;5016198;28;20132;-67
2023/05/21 09:15:47;;;;;;;8.25;3.63;;;18.80;99.90;;;;;;5031472;28;20028;-67
2023/05/21 09:18:13;;;;;;;9.38;4.20;;;18.90;99.90;;;;;;5016068;28;20474;-66
2023/05/21 09:20:40;;;;;;;9.20;3.90;;;19.00;99.90;;;;;;5016113;28;20038;-67
2023/05/21 09:23:11;;;;;;;4.47;3.78;;;19.00;99.90;;;;;;5015628;28;20061;-66
2023/05/21 09:25:37;;;;;;;6.75;3.95;;;19.00;99.90;;;;;;5031387;28;20118;-67
2023/05/21 09:28:09;;;;;;;6.07;3.60;;;19.00;99.90;;;;;;5016021;28;20037;-67
2023/05/21 09:30:36;;;;;;;13.43;4.13;;;19.10;99.90;;;;;;5015948;28;20029;-67
2023/05/21 09:33:02;;;;;;;6.97;4.50;;;19.00;99.90;;;;;;5015902;28;20482;-67
2023/05/21 09:35:28;;;;;;;6.03;3.45;;;19.00;99.90;;;;;;5015830;28;20021;-67
2023/05/21 09:37:56;;;;;;;6.68;3.70;;;19.10;99.90;;;;;;5015648;28;20025;-67
2023/05/21 09:40:23;;;;;;;;;;;19.20;99.90;;;;;;5016136;28;20030;-67
2023/05/21 09:42:53;;;;;;;10.27;4.20;;;19.10;99.90;;;;;;5015611;28;19960;-66
2023/05/21 09:45:27;;;;;;;7.13;4.00;;;19.30;99.90;;;;;;5015113;28;20092;-66
2023/05/21 09:47:55;;;;;;;4.65;3.65;;;19.40;99.90;;;;;;5014921;28;20037;-66
2023/05/21 09:50:23;;;;;;;9.65;4.28;;;19.40;99.90;;;;;;5015739;28;20394;-67
2023/05/21 09:52:51;;;;;;;6.82;4.13;;;19.40;99.90;;;;;;5015459;28;20022;-67
2023/05/21 09:55:18;;;;;;;9.68;3.85;;;19.40;99.90;;;;;;5015463;28;20017;-68
2023/05/21 09:57:45;;;;;;;5.00;4.13;;;19.50;99.90;;;;;;5015666;28;20399;-66
2023/05/21 10:00:23;;;;;;;6.95;3.83;;;19.50;99.90;;;;;;5015370;28;20025;-66
2023/05/21 10:03:11;;;;;;;6.40;3.78;;;19.60;99.90;;;;;;5030612;28;20113;-66
2023/05/21 10:05:37;;;;;;;6.40;3.88;;;19.90;99.90;;;;;;5015193;28;20029;-66
2023/05/21 10:08:03;;;;;;;6.38;3.97;;;20.10;99.90;;;;;;5017638;28;20034;-67
2023/05/21 10:10:30;;;;;;;12.80;4.45;;;20.30;99.90;;;;;;5030160;28;20018;-69
2023/05/21 10:13:08;;;;;;;7.38;3.58;;;20.30;99.90;;;;;;5015106;28;20022;-66
2023/05/21 10:15:47;;;;;;;6.53;3.92;;;20.50;99.90;;;;;;5015052;28;20025;-68
2023/05/21 10:18:13;;;;;;;5.97;3.60;;;20.70;99.90;;;;;;5015052;28;20108;-68
2023/05/21 10:20:39;;;;;;;7.60;3.90;;;20.80;99.90;;;;;;5032498;28;20072;-68
2023/05/21 10:23:05;;;;;;;7.55;4.07;;;21.00;99.90;;;;;;5032328;28;20046;-69
2023/05/21 10:25:32;;;;;;;4.80;3.70;;;21.30;99.90;;;;;;5032482;28;20569;-68
2023/05/21 10:27:58;;;;;;;11.32;4.00;;;21.50;99.90;;;;;;5032583;28;20040;-67
2023/05/21 10:30:24;;;;;;;6.68;4.15;;;21.20;99.90;;;;;;5029544;28;20504;-68
2023/05/21 10:32:50;;;;;;;11.05;3.67;;;21.20;99.90;;;;;;5032376;28;20418;-67
2023/05/21 10:35:17;;;;;;;5.03;4.13;;;21.10;99.90;;;;;;5032341;28;20037;-67
2023/05/21 10:37:44;;;;;;;7.50;3.70;;;21.10;99.90;;;;;;5032188;28;20026;-67
2023/05/21 10:40:10;;;;;;;4.45;2.75;;;21.30;99.90;;;;;;5012371;28;20046;-68
2023/05/21 10:42:44;;;;;;;5.53;3.70;;;21.30;99.90;;;;;;5012387;28;20610;-66
2023/05/21 10:45:33;;;;;;;7.10;3.78;;;21.30;99.90;;;;;;5012403;28;20591;-67
2023/05/21 10:48:37;;;;;;;9.57;3.28;;;21.40;99.90;;;;;;5007073;28;20054;-67
2023/05/21 10:51:25;;;;;;;5.60;3.53;;;21.50;99.90;;;;;;5012088;28;20085;-66
2023/05/21 10:54:28;;;;;;;7.95;3.85;;;21.50;99.90;;;;;;5012260;28;20057;-67
2023/05/21 10:57:35;;;;;;;6.90;3.75;;;21.40;99.90;;;;;;5011979;28;20034;-66
2023/05/21 11:00:02;;;;;;;8.35;3.67;;;21.00;99.90;;;;;;5011503;28;20065;-67
2023/05/21 11:02:28;;;;;;;8.00;3.42;;;20.80;99.90;;;;;;5012067;28;20022;-68
2023/05/21 11:05:00;;;;;;;14.85;4.13;;;20.70;99.90;;;;;;5011949;28;20081;-66
2023/05/21 11:07:56;;;;;;;8.35;4.00;;;20.60;99.90;;;;;;5011996;28;20424;-67
2023/05/21 11:10:43;;;;;;;9.57;4.17;;;20.60;99.90;;;;;;5012540;28;20040;-66
2023/05/21 11:13:12;;;;;;;8.32;3.97;;;20.70;99.90;;;;;;5029277;28;20057;-66
2023/05/21 11:15:56;;;;;;;5.05;3.22;;;20.90;99.90;;;;;;5013908;28;20021;-65
2023/05/21 11:18:45;;;;;;;9.38;4.20;;;20.90;99.90;;;;;;5013950;28;20532;-67
2023/05/21 11:21:12;;;;;;;5.15;3.63;;;21.10;99.90;;;;;;5007096;28;20044;-67
2023/05/21 11:23:55;;;;;;;;;;;21.10;99.90;;;;;;5014355;28;20077;-67
2023/05/21 11:26:25;;;;;;;5.40;3.40;;;21.20;99.90;;;;;;5012590;28;19909;-66
2023/05/21 11:29:03;;;;;;;7.35;4.20;;;21.20;99.90;;;;;;5013787;28;20084;-67
2023/05/21 11:31:36;;;;;;;6.72;4.07;;;21.10;99.90;;;;;;5013558;28;20080;-67
2023/05/21 11:34:17;;;;;;;7.10;3.90;;;20.90;99.90;;;;;;5013739;28;20014;-66
2023/05/21 11:36:46;;;;;;;10.90;4.47;;;21.10;99.90;;;;;;5013589;28;20032;-66
2023/05/21 11:39:14;;;;;;;6.10;3.22;;;21.20;99.90;;;;;;5013540;28;20022;-66
2023/05/21 11:41:57;;;;;;;5.72;4.13;;;21.30;99.90;;;;;;5013526;28;20028;-67
2023/05/21 11:44:42;;;;;;;10.00;4.30;;;21.50;99.90;;;;;;5013145;28;20037;-67
2023/05/21 11:47:11;;;;;;;9.10;3.88;;;21.50;99.90;;;;;;5013394;28;20018;-67
2023/05/21 11:49:38;;;;;;;7.78;3.25;;;21.60;99.90;;;;;;5013351;28;20525;-67
2023/05/21 11:52:05;;;;;;;8.57;4.38;;;21.60;99.90;;;;;;5013321;28;20018;-67
2023/05/21 11:54:35;;;;;;;5.28;3.50;;;21.50;99.90;;;;;;5013319;28;20018;-66
2023/05/21 11:57:04;;;;;;;9.57;3.55;;;21.40;99.90;;;;;;5013304;28;20018;-66
2023/05/21 11:59:32;;;;;;;6.85;3.13;;;21.10;99.90;;;;;;5013314;28;20029;-68
2023/05/21 12:01:58;;;;;;;8.93;3.40;;;21.00;99.90;;;;;;5013249;28;20040;-67
2023/05/21 12:04:28;;;;;;;7.75;3.53;;;21.00;99.90;;;;;;5013100;28;20049;-68
2023/05/21 12:06:57;;;;;;;10.25;3.83;;;21.00;99.90;;;;;;5013264;28;20053;-67
2023/05/21 12:09:30;;;;;;;7.43;3.83;;;20.90;99.90;;;;;;5012554;28;20022;-67
2023/05/21 12:11:55;;;;;;;5.97;3.92;;;20.90;99.90;;;;;;5012714;28;20120;-67
2023/05/21 12:14:21;;;;;;;8.55;3.70;;;20.90;99.90;;;;;;5012949;28;20104;-68
2023/05/21 12:16:47;;;;;;;9.43;4.03;;;21.00;99.90;;;;;;5013315;28;20018;-67
2023/05/21 12:19:16;;;;;;;9.95;4.20;;;21.20;99.90;;;;;;5012892;28;20395;-67
2023/05/21 12:21:42;;;;;;;8.82;4.60;;;21.20;99.90;;;;;;5012788;28;20442;-66
2023/05/21 12:24:07;;;;;;;7.70;3.95;;;21.10;99.90;;;;;;5027997;28;20037;-66
2023/05/21 12:26:34;;;;;;;6.90;4.13;;;20.80;99.90;;;;;;5012926;28;20105;-66
2023/05/21 12:29:01;;;;;;;11.82;3.50;;;20.60;99.90;;;;;;5013169;28;20041;-67
2023/05/21 12:31:31;;;;;;;9.47;4.00;;;20.70;99.90;;;;;;5010700;28;20121;-66
2023/05/21 12:33:57;;;;;;;6.30;3.67;;;20.70;99.90;;;;;;5012764;28;20042;-67
2023/05/21 12:36:27;;;;;;;7.15;3.75;;;20.70;99.90;;;;;;5012787;28;20053;-67
2023/05/21 12:38:55;;;;;;;8.63;3.88;;;20.70;99.90;;;;;;5012738;28;20030;-67
2023/05/21 12:41:29;;;;;;;4.13;3.40;;;20.80;99.90;;;;;;5027383;28;20410;-66
2023/05/21 12:43:55;;;;;;;5.72;3.45;;;20.50;99.90;;;;;;5012860;28;20386;-69
2023/05/21 12:46:22;;;;;;;5.65;4.10;;;20.40;99.90;;;;;;5012851;28;20025;-68
2023/05/21 12:48:55;;;;;;;5.75;4.30;;;20.40;99.90;;;;;;5028042;28;20121;-66
2023/05/21 12:51:20;;;;;;;9.07;5.32;;;20.50;99.90;;;;;;5012716;28;20030;-66
2023/05/21 12:53:47;;;;;;;6.32;3.55;;;20.60;99.90;;;;;;5012819;28;20022;-66